Time;durP1;ratioP1;P1;durP2;ratioP2;P2;SDS_P1;SDS_P2;PMS_P1;PMS_P2;Temp;Humidity;BMP_temperature;BMP_pressure;BME280_temperature;BME280_humidity;BME280_pressure;Samples;Min_cycle;Max_cycle;Signal;HPM_P1;HPM_P2
2023/03/17 00:00:06;;;;;;;5.35;3.40;;;8.10;99.90;;;;;;5093508;28;20085;-57
2023/03/17 00:02:32;;;;;;;6.45;3.35;;;8.10;99.90;;;;;;5093367;28;20040;-57
2023/03/17 00:04:58;;;;;;;7.35;3.72;;;8.10;99.90;;;;;;5092558;28;20047;-57
2023/03/17 00:07:24;;;;;;;7.22;3.63;;;8.10;99.90;;;;;;5093312;28;20032;-58
2023/03/17 00:09:49;;;;;;;6.95;3.78;;;8.20;99.90;;;;;;5093271;28;20466;-58
2023/03/17 00:12:16;;;;;;;7.90;3.63;;;8.20;99.90;;;;;;5093431;28;20046;-58
2023/03/17 00:14:45;;;;;;;6.15;4.10;;;8.20;99.90;;;;;;5104531;28;20495;-57
2023/03/17 00:17:13;;;;;;;8.90;3.38;;;8.20;99.90;;;;;;5113476;28;20118;-57
2023/03/17 00:19:40;;;;;;;5.45;3.15;;;8.30;99.90;;;;;;5113840;28;20040;-57
2023/03/17 00:22:12;;;;;;;7.20;3.53;;;8.30;99.90;;;;;;5113694;28;20040;-57
2023/03/17 00:24:38;;;;;;;6.88;3.80;;;8.30;99.90;;;;;;5113237;28;20504;-57
2023/03/17 00:27:11;;;;;;;6.88;3.35;;;8.30;99.90;;;;;;5113389;28;20040;-57
2023/03/17 00:29:37;;;;;;;4.35;2.80;;;8.30;99.90;;;;;;5111612;28;20048;-57
2023/03/17 00:32:03;;;;;;;7.00;3.30;;;8.30;99.90;;;;;;5113016;28;20066;-57
2023/03/17 00:34:29;;;;;;;4.97;3.40;;;8.30;99.90;;;;;;5110081;28;20047;-58
2023/03/17 00:36:55;;;;;;;4.63;2.53;;;8.30;99.90;;;;;;5092558;28;20115;-57
2023/03/17 00:39:20;;;;;;;5.75;3.30;;;8.30;99.90;;;;;;5092660;28;20069;-58
2023/03/17 00:41:46;;;;;;;5.45;3.40;;;8.30;99.90;;;;;;5092765;28;20126;-58
2023/03/17 00:44:13;;;;;;;5.72;3.50;;;8.20;99.90;;;;;;5112169;28;20047;-59
2023/03/17 00:46:40;;;;;;;5.07;3.20;;;8.20;99.90;;;;;;5111568;28;20035;-57
2023/03/17 00:49:21;;;;;;;6.82;3.97;;;8.30;99.90;;;;;;5112304;28;20056;-58
2023/03/17 00:51:48;;;;;;;5.13;3.30;;;8.20;99.90;;;;;;5113190;28;20035;-58
2023/03/17 00:54:15;;;;;;;4.35;3.00;;;8.30;99.90;;;;;;5095016;28;20039;-58
2023/03/17 00:56:42;;;;;;;9.30;3.40;;;8.30;99.90;;;;;;5112818;28;20485;-57
2023/03/17 00:59:29;;;;;;;5.03;3.33;;;8.20;99.90;;;;;;5112937;28;20119;-57
2023/03/17 01:01:55;;;;;;;5.30;2.80;;;8.30;99.90;;;;;;5113067;28;20161;-58
2023/03/17 01:04:21;;;;;;;4.47;3.20;;;8.30;99.90;;;;;;5111147;28;20100;-58
2023/03/17 01:06:49;;;;;;;5.25;3.13;;;8.20;99.90;;;;;;5112925;28;20043;-59
2023/03/17 01:09:17;;;;;;;5.45;3.45;;;8.20;99.90;;;;;;5112951;28;20039;-57
2023/03/17 01:11:43;;;;;;;4.13;3.13;;;8.20;99.90;;;;;;5111907;28;20039;-58
2023/03/17 01:14:11;;;;;;;5.78;3.00;;;8.20;99.90;;;;;;5112811;28;20453;-58
2023/03/17 01:16:37;;;;;;;7.85;3.17;;;8.20;99.90;;;;;;5111164;28;20089;-58
2023/03/17 01:19:03;;;;;;;4.22;2.97;;;8.20;99.90;;;;;;5113010;28;20138;-58
2023/03/17 01:21:30;;;;;;;7.78;3.20;;;8.20;99.90;;;;;;5112809;28;20096;-57
2023/03/17 01:23:55;;;;;;;4.10;2.90;;;8.20;99.90;;;;;;5112680;28;20036;-58
2023/03/17 01:26:21;;;;;;;5.35;3.05;;;8.10;99.90;;;;;;5112674;28;20133;-57
2023/03/17 01:28:47;;;;;;;5.00;3.17;;;8.20;99.90;;;;;;5112598;28;20031;-58
2023/03/17 01:31:12;;;;;;;5.10;3.35;;;8.20;99.90;;;;;;5112772;28;20087;-58
2023/03/17 01:33:39;;;;;;;8.45;3.00;;;8.20;99.90;;;;;;5112858;28;20409;-58
2023/03/17 01:36:05;;;;;;;5.28;3.05;;;8.20;99.90;;;;;;5112852;28;20074;-58
2023/03/17 01:38:31;;;;;;;4.78;3.25;;;8.20;99.90;;;;;;5112852;28;20044;-58
2023/03/17 01:40:57;;;;;;;5.78;3.00;;;8.20;99.90;;;;;;5112332;28;20043;-58
2023/03/17 01:43:28;;;;;;;5.97;3.10;;;8.20;99.90;;;;;;5112779;28;20112;-58
2023/03/17 01:46:20;;;;;;;5.50;3.08;;;8.20;99.90;;;;;;5115026;28;20473;-58
2023/03/17 01:49:11;;;;;;;4.72;3.15;;;8.10;99.90;;;;;;5115066;28;20078;-58
2023/03/17 01:51:59;;;;;;;5.28;3.15;;;8.20;99.90;;;;;;5116359;28;20031;-58
2023/03/17 01:54:55;;;;;;;4.70;2.95;;;8.20;99.90;;;;;;5116328;27;20481;-58
2023/03/17 01:57:35;;;;;;;6.05;2.83;;;8.20;99.90;;;;;;5116229;28;20501;-60
2023/03/17 02:00:11;;;;;;;6.20;3.28;;;8.20;99.90;;;;;;5116108;28;20043;-59
2023/03/17 02:02:43;;;;;;;5.45;3.33;;;8.20;99.90;;;;;;5116063;28;20397;-58
2023/03/17 02:05:15;;;;;;;5.22;3.22;;;8.20;99.90;;;;;;5116092;28;20054;-59
2023/03/17 02:07:41;;;;;;;5.50;2.97;;;8.10;99.90;;;;;;5116205;28;20081;-59
2023/03/17 02:10:08;;;;;;;6.28;3.75;;;8.10;99.90;;;;;;5116093;28;20498;-58
2023/03/17 02:12:35;;;;;;;6.03;3.28;;;8.10;99.90;;;;;;5116148;28;20044;-57
2023/03/17 02:15:02;;;;;;;5.47;3.10;;;8.10;99.90;;;;;;5115832;28;20481;-57
2023/03/17 02:17:28;;;;;;;4.72;3.28;;;8.10;99.90;;;;;;5115724;28;20493;-58
2023/03/17 02:19:54;;;;;;;4.32;3.15;;;8.10;99.90;;;;;;5115803;28;20036;-58
2023/03/17 02:22:20;;;;;;;6.10;3.13;;;8.10;99.90;;;;;;5115746;28;20126;-58
2023/03/17 02:24:50;;;;;;;5.72;3.30;;;8.10;99.90;;;;;;5114798;28;20110;-58
2023/03/17 02:27:20;;;;;;;4.72;3.15;;;8.10;99.90;;;;;;5115737;28;20474;-57
2023/03/17 02:29:46;;;;;;;6.97;3.10;;;8.10;99.90;;;;;;5116023;28;20397;-57
2023/03/17 02:32:17;;;;;;;5.68;3.03;;;8.10;99.90;;;;;;5115479;28;20063;-58
2023/03/17 02:34:44;;;;;;;4.25;3.03;;;8.10;99.90;;;;;;5115593;28;20087;-58
2023/03/17 02:37:10;;;;;;;4.95;3.50;;;8.00;99.90;;;;;;5115382;28;20042;-57
2023/03/17 02:39:36;;;;;;;5.53;3.60;;;8.00;99.90;;;;;;5115582;28;20036;-58
2023/03/17 02:42:03;;;;;;;4.22;3.03;;;8.00;99.90;;;;;;5115730;28;20044;-58
2023/03/17 02:44:29;;;;;;;6.05;3.28;;;8.00;99.90;;;;;;5115634;28;20042;-58
2023/03/17 02:46:55;;;;;;;7.13;3.00;;;8.00;99.90;;;;;;5115359;28;20028;-59
2023/03/17 02:49:21;;;;;;;6.25;3.38;;;8.00;99.90;;;;;;5115632;28;20051;-58
2023/03/17 02:51:47;;;;;;;5.93;3.03;;;8.00;99.90;;;;;;5114009;28;20043;-58
2023/03/17 02:54:13;;;;;;;6.00;4.00;;;7.90;99.90;;;;;;5115347;28;20039;-58
2023/03/17 02:56:38;;;;;;;6.50;3.20;;;7.90;99.90;;;;;;5115473;28;20040;-57
2023/03/17 02:59:05;;;;;;;4.85;3.22;;;7.90;99.90;;;;;;5114997;28;20043;-57
2023/03/17 03:01:30;;;;;;;4.45;2.95;;;7.90;99.90;;;;;;5115456;27;20059;-58
2023/03/17 03:03:58;;;;;;;4.25;2.90;;;7.90;99.90;;;;;;5115104;28;20460;-58
2023/03/17 03:06:23;;;;;;;4.65;3.08;;;7.90;99.90;;;;;;5114856;28;20441;-59
2023/03/17 03:08:50;;;;;;;5.50;3.33;;;7.90;99.90;;;;;;5115142;28;20036;-59
2023/03/17 03:11:15;;;;;;;5.15;3.72;;;7.80;99.90;;;;;;5114746;28;20561;-58
2023/03/17 03:13:41;;;;;;;4.57;3.20;;;7.90;99.90;;;;;;5115301;28;20118;-58
2023/03/17 03:16:08;;;;;;;6.20;3.28;;;7.90;99.90;;;;;;5114710;28;20076;-57
2023/03/17 03:18:34;;;;;;;7.88;3.42;;;7.90;99.90;;;;;;5114783;28;20035;-58
2023/03/17 03:21:00;;;;;;;5.45;3.45;;;7.90;99.90;;;;;;5114594;28;20586;-58
2023/03/17 03:23:26;;;;;;;5.72;3.03;;;7.90;99.90;;;;;;5114778;28;20469;-58
2023/03/17 03:25:52;;;;;;;6.50;3.40;;;7.90;99.90;;;;;;5114697;28;20031;-58
2023/03/17 03:28:18;;;;;;;6.25;3.22;;;7.90;99.90;;;;;;5115006;28;20050;-58
2023/03/17 03:30:44;;;;;;;4.72;3.42;;;7.90;99.90;;;;;;5114614;28;20039;-58
2023/03/17 03:33:12;;;;;;;5.47;3.33;;;7.90;99.90;;;;;;5114296;28;20492;-58
2023/03/17 03:35:38;;;;;;;10.27;3.42;;;7.90;99.90;;;;;;5114477;28;20043;-58
2023/03/17 03:38:05;;;;;;;5.78;3.47;;;7.90;99.90;;;;;;5113304;28;20152;-58
2023/03/17 03:40:30;;;;;;;6.07;3.55;;;7.90;99.90;;;;;;5096152;28;20481;-58
2023/03/17 03:42:56;;;;;;;6.15;3.67;;;7.90;99.90;;;;;;5114396;28;20032;-58
2023/03/17 03:45:22;;;;;;;4.15;3.13;;;7.90;99.90;;;;;;5113157;28;20488;-59
2023/03/17 03:47:47;;;;;;;7.28;3.50;;;7.90;99.90;;;;;;5114414;28;20067;-57
2023/03/17 03:50:13;;;;;;;5.95;3.72;;;7.80;99.90;;;;;;5114254;28;20031;-58
2023/03/17 03:52:39;;;;;;;4.60;3.10;;;7.80;99.90;;;;;;5114041;28;20122;-58
2023/03/17 03:55:05;;;;;;;6.13;3.13;;;7.80;99.90;;;;;;5114401;28;20035;-58
2023/03/17 03:57:31;;;;;;;4.60;3.53;;;7.80;99.90;;;;;;5114215;28;20483;-58
2023/03/17 03:59:57;;;;;;;4.93;3.20;;;7.80;99.90;;;;;;5114188;28;20047;-59
2023/03/17 04:02:22;;;;;;;6.55;3.30;;;7.80;99.90;;;;;;5114062;28;20047;-60
2023/03/17 04:04:48;;;;;;;5.18;2.97;;;7.80;99.90;;;;;;5114103;28;20036;-58
2023/03/17 04:07:14;;;;;;;5.88;3.60;;;7.80;99.90;;;;;;5113600;28;20032;-59
2023/03/17 04:09:40;;;;;;;6.80;3.70;;;7.80;99.90;;;;;;5113829;28;20466;-59
2023/03/17 04:12:07;;;;;;;5.78;2.80;;;7.80;99.90;;;;;;5113819;28;20046;-58
2023/03/17 04:14:32;;;;;;;8.95;3.75;;;7.80;99.90;;;;;;5113612;28;20500;-58
2023/03/17 04:16:58;;;;;;;7.35;3.10;;;7.80;99.90;;;;;;5113811;28;20044;-59
2023/03/17 04:19:24;;;;;;;5.45;2.97;;;7.80;99.90;;;;;;5114048;28;20047;-58
2023/03/17 04:21:50;;;;;;;5.32;3.20;;;7.80;99.90;;;;;;5113741;28;20039;-58
2023/03/17 04:24:15;;;;;;;6.18;3.20;;;7.70;99.90;;;;;;5113541;28;20039;-58
2023/03/17 04:26:41;;;;;;;6.03;3.13;;;7.80;99.90;;;;;;5112455;28;20055;-58
2023/03/17 04:29:07;;;;;;;6.47;3.33;;;7.80;99.90;;;;;;5113318;28;20042;-58
2023/03/17 04:31:38;;;;;;;6.60;3.92;;;7.70;99.90;;;;;;5113496;28;20051;-58
2023/03/17 04:34:04;;;;;;;5.03;3.33;;;7.70;99.90;;;;;;5113510;28;20132;-58
2023/03/17 04:36:29;;;;;;;6.43;3.40;;;7.70;99.90;;;;;;5113607;27;20063;-58
2023/03/17 04:38:55;;;;;;;4.95;2.80;;;7.70;99.90;;;;;;5113494;28;20043;-58
2023/03/17 04:41:21;;;;;;;6.30;3.30;;;7.70;99.90;;;;;;5113503;28;20481;-58
2023/03/17 04:43:46;;;;;;;5.57;3.45;;;7.70;99.90;;;;;;5113382;28;20042;-58
2023/03/17 04:46:12;;;;;;;4.97;3.33;;;7.60;99.90;;;;;;5113177;28;20096;-58
2023/03/17 04:48:39;;;;;;;4.72;3.00;;;7.60;99.90;;;;;;5113450;28;20110;-58
2023/03/17 04:51:05;;;;;;;5.53;3.75;;;7.70;99.90;;;;;;5113342;28;20035;-58
2023/03/17 04:53:31;;;;;;;5.47;2.97;;;7.50;99.90;;;;;;5113291;28;20081;-58
2023/03/17 04:55:57;;;;;;;5.35;3.20;;;7.60;99.90;;;;;;5113162;28;20071;-58
2023/03/17 04:58:23;;;;;;;8.68;3.25;;;7.50;99.90;;;;;;5113247;28;20094;-58
2023/03/17 05:00:49;;;;;;;4.72;2.78;;;7.50;99.90;;;;;;5113243;28;20082;-58
2023/03/17 05:03:15;;;;;;;4.68;3.17;;;7.50;99.90;;;;;;5112886;28;20079;-58
2023/03/17 05:05:41;;;;;;;6.03;3.22;;;7.60;99.90;;;;;;5113196;28;20032;-58
2023/03/17 05:08:06;;;;;;;7.40;3.38;;;7.50;99.90;;;;;;5112924;28;20038;-58
2023/03/17 05:10:32;;;;;;;5.53;3.20;;;7.50;99.90;;;;;;5112666;28;20115;-60
2023/03/17 05:12:57;;;;;;;3.58;2.83;;;7.50;99.90;;;;;;5095912;28;20131;-58
2023/03/17 05:15:23;;;;;;;6.28;3.35;;;7.50;99.90;;;;;;5093013;28;20051;-58
2023/03/17 05:17:49;;;;;;;4.90;3.17;;;7.50;99.90;;;;;;5092662;28;20032;-58
2023/03/17 05:20:15;;;;;;;4.93;3.30;;;7.50;99.90;;;;;;5094357;28;20449;-58
2023/03/17 05:22:41;;;;;;;4.95;3.53;;;7.50;99.90;;;;;;5096612;28;20482;-59
2023/03/17 05:25:07;;;;;;;5.40;3.42;;;7.50;99.90;;;;;;5096260;28;20075;-58
2023/03/17 05:27:32;;;;;;;5.90;3.63;;;7.50;99.90;;;;;;5096833;28;20397;-58
2023/03/17 05:29:58;;;;;;;6.68;3.30;;;7.50;99.90;;;;;;5096313;28;20084;-58
2023/03/17 05:32:24;;;;;;;4.28;3.17;;;7.50;99.90;;;;;;5095080;28;20055;-58
2023/03/17 05:34:50;;;;;;;6.10;3.13;;;7.50;99.90;;;;;;5096699;28;20040;-58
2023/03/17 05:37:16;;;;;;;3.22;2.58;;;7.50;99.90;;;;;;5096266;28;20039;-59
2023/03/17 05:39:42;;;;;;;5.38;3.53;;;7.50;99.90;;;;;;5096343;28;20039;-58
2023/03/17 05:42:08;;;;;;;6.50;3.47;;;7.60;99.90;;;;;;5108220;28;20043;-58
2023/03/17 05:44:34;;;;;;;5.75;2.90;;;7.60;99.90;;;;;;5116519;27;20032;-58
2023/03/17 05:47:00;;;;;;;5.40;3.45;;;7.60;99.90;;;;;;5116891;28;20063;-58
2023/03/17 05:49:27;;;;;;;5.10;3.40;;;7.60;99.90;;;;;;5116358;27;20118;-58
2023/03/17 05:51:54;;;;;;;7.53;3.60;;;7.60;99.90;;;;;;5116215;28;20096;-59
2023/03/17 05:54:21;;;;;;;5.18;3.15;;;7.70;99.90;;;;;;5116333;28;20042;-58
2023/03/17 05:56:46;;;;;;;6.07;3.40;;;7.70;99.90;;;;;;5116475;27;20071;-59
2023/03/17 05:59:15;;;;;;;5.53;3.58;;;7.70;99.90;;;;;;5116487;28;20074;-58
2023/03/17 06:01:42;;;;;;;7.75;3.35;;;7.70;99.90;;;;;;5116462;27;20036;-62
2023/03/17 06:04:08;;;;;;;6.03;3.38;;;7.70;99.90;;;;;;5078823;28;20039;-58
2023/03/17 06:06:34;;;;;;;7.65;3.85;;;7.70;99.90;;;;;;5095944;28;20490;-58
2023/03/17 06:09:00;;;;;;;10.25;3.63;;;7.80;99.90;;;;;;5095943;28;20075;-58
2023/03/17 06:11:27;;;;;;;9.48;3.75;;;7.80;99.90;;;;;;5094657;28;20071;-58
2023/03/17 06:13:53;;;;;;;6.55;3.70;;;7.80;99.90;;;;;;5092300;28;20039;-59
2023/03/17 06:16:19;;;;;;;6.07;3.80;;;7.80;99.90;;;;;;5107163;28;20450;-59
2023/03/17 06:18:45;;;;;;;7.13;3.70;;;7.80;99.90;;;;;;5115832;28;20039;-59
2023/03/17 06:21:12;;;;;;;4.20;3.55;;;7.90;99.90;;;;;;5115135;28;20405;-58
2023/03/17 06:23:37;;;;;;;9.35;3.55;;;8.00;99.90;;;;;;5115887;28;20096;-59
2023/03/17 06:26:03;;;;;;;6.00;3.58;;;8.10;99.90;;;;;;5115615;28;20472;-58
2023/03/17 06:28:29;;;;;;;6.13;3.70;;;8.20;99.90;;;;;;5115659;28;20035;-59
2023/03/17 06:30:55;;;;;;;6.40;3.60;;;8.30;99.90;;;;;;5114863;27;20453;-58
2023/03/17 06:33:21;;;;;;;5.07;3.42;;;8.30;99.90;;;;;;5114420;28;20055;-59
2023/03/17 06:35:47;;;;;;;8.77;4.40;;;8.30;99.90;;;;;;5114536;28;20036;-59
2023/03/17 06:38:12;;;;;;;6.82;3.75;;;8.30;99.90;;;;;;5114586;28;20063;-58
2023/03/17 06:40:38;;;;;;;5.18;3.47;;;8.30;99.90;;;;;;5114479;28;20036;-59
2023/03/17 06:43:04;;;;;;;5.80;3.92;;;8.30;99.90;;;;;;5114061;28;20491;-59
2023/03/17 06:45:31;;;;;;;4.95;3.03;;;8.30;99.90;;;;;;5114408;28;20042;-59
2023/03/17 06:47:57;;;;;;;5.90;3.35;;;8.30;99.90;;;;;;5114455;28;20092;-59
2023/03/17 06:50:23;;;;;;;5.82;3.30;;;8.30;99.90;;;;;;5114454;28;20043;-59
2023/03/17 06:52:49;;;;;;;5.97;3.80;;;8.40;99.90;;;;;;5114120;28;20393;-59
2023/03/17 06:55:15;;;;;;;4.97;3.40;;;8.30;99.90;;;;;;5114346;28;20040;-58
2023/03/17 06:57:40;;;;;;;7.25;4.03;;;8.40;99.90;;;;;;5113928;28;20122;-59
2023/03/17 07:00:07;;;;;;;6.25;3.42;;;8.40;99.90;;;;;;5114228;28;20093;-58
2023/03/17 07:02:33;;;;;;;5.95;4.00;;;8.40;99.90;;;;;;5112647;28;20498;-60
2023/03/17 07:04:59;;;;;;;7.20;3.42;;;8.40;99.90;;;;;;5114090;28;20070;-59
2023/03/17 07:07:26;;;;;;;7.85;3.30;;;8.40;99.90;;;;;;5114048;28;20465;-59
2023/03/17 07:09:52;;;;;;;5.65;3.72;;;8.40;99.90;;;;;;5114064;28;20032;-59
2023/03/17 07:12:19;;;;;;;8.23;3.85;;;8.40;99.90;;;;;;5114063;28;20040;-59
2023/03/17 07:14:44;;;;;;;4.57;3.50;;;8.50;99.90;;;;;;5113921;28;20043;-58
2023/03/17 07:17:13;;;;;;;7.03;3.53;;;8.50;99.90;;;;;;5113980;28;20045;-58
2023/03/17 07:19:39;;;;;;;5.65;3.35;;;8.50;99.90;;;;;;5114074;28;20039;-59
2023/03/17 07:22:06;;;;;;;6.82;3.53;;;8.60;99.90;;;;;;5113654;28;20040;-59
2023/03/17 07:24:31;;;;;;;9.27;4.13;;;8.50;99.90;;;;;;5114056;28;20115;-58
2023/03/17 07:26:57;;;;;;;5.60;3.35;;;8.60;99.90;;;;;;5113613;28;20437;-59
2023/03/17 07:29:23;;;;;;;6.63;3.22;;;8.60;99.90;;;;;;5113598;28;20450;-59
2023/03/17 07:31:48;;;;;;;6.82;3.85;;;8.70;99.90;;;;;;5075075;27;1092144;-59
2023/03/17 07:34:15;;;;;;;4.55;3.30;;;8.80;99.90;;;;;;5114418;28;20043;-59
2023/03/17 07:36:41;;;;;;;7.97;3.10;;;8.90;99.90;;;;;;5114407;28;20499;-58
2023/03/17 07:39:07;;;;;;;7.95;3.20;;;9.00;99.90;;;;;;5114373;28;20035;-58
2023/03/17 07:41:33;;;;;;;4.35;3.33;;;9.10;99.90;;;;;;5110075;28;20046;-58
2023/03/17 07:43:59;;;;;;;5.60;3.60;;;9.30;99.90;;;;;;5113402;28;20122;-59
2023/03/17 07:46:25;;;;;;;7.57;3.60;;;9.50;99.90;;;;;;5105597;28;20074;-59
2023/03/17 07:48:52;;;;;;;6.00;3.53;;;9.60;99.90;;;;;;5093773;28;20036;-58
2023/03/17 07:51:21;;;;;;;4.75;3.03;;;9.80;99.90;;;;;;5093484;28;20051;-58
2023/03/17 07:53:48;;;;;;;7.78;4.00;;;10.10;99.90;;;;;;5093668;28;20036;-59
2023/03/17 07:56:15;;;;;;;6.88;3.63;;;10.30;99.90;;;;;;5093318;28;20119;-58
2023/03/17 07:58:41;;;;;;;7.15;3.88;;;10.20;99.90;;;;;;5093348;28;20075;-60
2023/03/17 08:01:07;;;;;;;8.68;4.43;;;10.20;99.90;;;;;;5093516;28;20064;-61
2023/03/17 08:03:33;;;;;;;6.47;3.10;;;10.20;99.90;;;;;;5093325;28;20048;-60
2023/03/17 08:05:59;;;;;;;6.47;3.28;;;10.20;99.90;;;;;;5093604;28;20054;-61
2023/03/17 08:08:26;;;;;;;6.15;3.15;;;10.30;99.90;;;;;;5093697;28;20036;-61
2023/03/17 08:10:52;;;;;;;5.22;3.50;;;10.30;99.90;;;;;;5093385;28;20545;-61
2023/03/17 08:13:18;;;;;;;6.35;3.80;;;10.30;99.90;;;;;;5093586;28;20127;-60
2023/03/17 08:15:45;;;;;;;6.45;3.60;;;10.30;99.90;;;;;;5093390;28;20071;-63
2023/03/17 08:18:11;;;;;;;6.20;3.28;;;10.40;99.90;;;;;;5093283;28;20441;-60
2023/03/17 08:20:37;;;;;;;5.28;3.38;;;10.40;99.90;;;;;;5093029;28;20123;-62
2023/03/17 08:23:03;;;;;;;8.95;4.18;;;10.40;99.90;;;;;;5092954;28;20040;-62
2023/03/17 08:25:30;;;;;;;7.60;3.33;;;10.40;99.90;;;;;;5093152;28;20039;-60
2023/03/17 08:27:56;;;;;;;7.57;3.42;;;10.30;99.90;;;;;;5093023;28;20042;-60
2023/03/17 08:30:22;;;;;;;5.38;3.50;;;10.30;99.90;;;;;;5093202;28;20044;-61
2023/03/17 08:32:48;;;;;;;4.95;3.03;;;10.20;99.90;;;;;;5092845;28;20067;-61
2023/03/17 08:35:15;;;;;;;7.03;3.60;;;10.20;99.90;;;;;;5091888;28;20048;-61
2023/03/17 08:37:45;;;;;;;5.82;3.63;;;10.20;99.90;;;;;;5093263;28;20111;-60
2023/03/17 08:40:18;;;;;;;6.43;3.88;;;10.30;99.90;;;;;;5091839;28;20044;-60
2023/03/17 08:42:46;;;;;;;7.45;3.60;;;10.20;99.90;;;;;;5091379;28;20040;-60
2023/03/17 08:45:12;;;;;;;5.43;3.45;;;10.20;99.90;;;;;;5092710;28;20036;-60
2023/03/17 08:47:39;;;;;;;7.05;3.60;;;10.20;99.90;;;;;;5092746;28;20114;-61
2023/03/17 08:50:12;;;;;;;6.03;3.42;;;10.30;99.90;;;;;;5092631;28;20036;-60
2023/03/17 08:52:38;;;;;;;7.72;3.70;;;10.30;99.90;;;;;;5092952;28;20048;-60
2023/03/17 08:55:05;;;;;;;7.65;3.58;;;10.30;99.90;;;;;;5092276;28;20089;-60
2023/03/17 08:57:31;;;;;;;5.65;3.53;;;10.40;99.90;;;;;;5092624;28;20040;-61
2023/03/17 08:59:56;;;;;;;5.80;3.70;;;10.50;99.90;;;;;;5092749;28;20382;-61
2023/03/17 09:02:22;;;;;;;7.18;3.55;;;10.60;99.90;;;;;;5092196;28;20040;-61
2023/03/17 09:04:48;;;;;;;5.07;3.45;;;10.70;99.90;;;;;;5092201;28;20028;-61
2023/03/17 09:07:14;;;;;;;5.45;3.28;;;10.80;99.90;;;;;;5092339;28;20033;-61
2023/03/17 09:09:40;;;;;;;6.35;3.28;;;10.90;99.90;;;;;;5092596;28;20042;-61
2023/03/17 09:12:06;;;;;;;8.07;3.65;;;11.00;99.90;;;;;;5092530;28;20075;-61
2023/03/17 09:14:33;;;;;;;5.05;3.15;;;11.10;99.90;;;;;;5092539;28;20040;-61
2023/03/17 09:16:59;;;;;;;5.80;3.65;;;11.40;99.90;;;;;;5092175;28;20492;-60
2023/03/17 09:19:25;;;;;;;6.57;2.85;;;11.70;99.90;;;;;;5091785;28;20078;-61
2023/03/17 09:21:51;;;;;;;7.70;3.70;;;12.00;99.90;;;;;;5092381;28;20037;-62
2023/03/17 09:24:18;;;;;;;7.47;3.40;;;12.30;99.90;;;;;;5091731;28;20040;-62
2023/03/17 09:26:44;;;;;;;5.97;3.33;;;12.30;99.90;;;;;;5092303;28;20045;-62
2023/03/17 09:29:10;;;;;;;5.03;3.38;;;12.30;99.90;;;;;;5092361;28;20044;-61
2023/03/17 09:31:35;;;;;;;6.72;3.72;;;12.30;99.90;;;;;;5092159;28;20071;-59
2023/03/17 09:34:03;;;;;;;6.20;3.70;;;12.40;99.90;;;;;;5091677;28;20104;-58
2023/03/17 09:36:31;;;;;;;7.57;3.33;;;12.50;99.90;;;;;;5092086;28;20040;-58
2023/03/17 09:38:57;;;;;;;5.28;2.72;;;12.50;99.90;;;;;;5092184;28;20466;-58
2023/03/17 09:41:38;;;;;;;5.82;3.55;;;12.60;99.90;;;;;;5090287;28;20522;-59
2023/03/17 09:44:07;;;;;;;5.18;3.53;;;12.70;99.90;;;;;;5090397;28;20047;-59
2023/03/17 09:47:12;;;;;;;4.38;2.90;;;12.90;99.90;;;;;;5090306;28;20044;-59
2023/03/17 09:49:44;;;;;;;5.28;3.63;;;13.00;99.90;;;;;;5091648;28;20043;-59
2023/03/17 09:52:17;;;;;;;7.80;3.30;;;13.10;99.90;;;;;;5091313;28;20073;-60
2023/03/17 09:54:45;;;;;;;4.38;3.10;;;13.20;99.90;;;;;;5090767;28;20048;-62
2023/03/17 09:57:25;;;;;;;7.30;3.47;;;13.30;99.90;;;;;;5091950;28;20040;-61
2023/03/17 10:00:05;;;;;;;7.97;3.40;;;13.40;99.90;;;;;;5091963;28;20052;-61
2023/03/17 10:02:32;;;;;;;;;;;13.50;99.90;;;;;;5092004;28;20043;-61
2023/03/17 10:05:11;;;;;;;6.57;3.60;;;13.60;99.90;;;;;;5090288;28;19916;-61
2023/03/17 10:08:06;;;;;;;5.00;3.20;;;13.50;99.90;;;;;;5094940;28;20401;-61
2023/03/17 10:10:58;;;;;;;5.57;3.40;;;13.70;99.90;;;;;;5095693;28;20158;-62
2023/03/17 10:13:56;;;;;;;6.78;3.45;;;13.90;99.90;;;;;;5094967;28;20040;-61
2023/03/17 10:16:49;;;;;;;5.97;3.22;;;14.00;99.90;;;;;;5096771;28;20051;-61
2023/03/17 10:19:45;;;;;;;5.88;3.28;;;14.10;99.90;;;;;;5032803;28;20049;-63
2023/03/17 10:22:23;;;;;;;6.03;3.60;;;14.20;99.90;;;;;;5032740;28;20376;-62
2023/03/17 10:25:00;;;;;;;5.47;3.80;;;14.20;99.90;;;;;;5032736;28;20056;-62
2023/03/17 10:27:28;;;;;;;5.53;3.25;;;14.20;99.90;;;;;;5016184;28;20483;-63
2023/03/17 10:29:54;;;;;;;8.30;3.50;;;14.20;99.90;;;;;;5032387;28;20045;-62
2023/03/17 10:32:19;;;;;;;6.90;3.63;;;14.30;99.90;;;;;;5032237;28;20053;-62
2023/03/17 10:34:47;;;;;;;5.63;3.75;;;14.40;99.90;;;;;;5032489;28;20099;-62
2023/03/17 10:37:22;;;;;;;6.38;3.20;;;14.70;99.90;;;;;;5032346;28;20110;-62
2023/03/17 10:39:50;;;;;;;5.88;3.97;;;14.90;99.90;;;;;;5032235;28;20045;-61
2023/03/17 10:42:31;;;;;;;8.07;3.80;;;15.10;99.90;;;;;;5032162;28;20048;-61
2023/03/17 10:45:26;;;;;;;6.13;3.63;;;15.10;99.90;;;;;;5032002;28;20045;-62
2023/03/17 10:47:56;;;;;;;6.50;4.25;;;15.30;99.90;;;;;;4962333;28;20051;-61
2023/03/17 10:50:21;;;;;;;6.40;3.90;;;15.40;99.90;;;;;;4953974;29;20083;-61
2023/03/17 10:53:11;;;;;;;5.75;4.13;;;15.60;99.90;;;;;;4938012;29;20055;-61
2023/03/17 10:55:37;;;;;;;6.30;3.97;;;15.60;99.90;;;;;;4978508;28;20064;-61
2023/03/17 10:58:17;;;;;;;5.75;3.88;;;15.70;99.90;;;;;;5052270;28;20071;-62
2023/03/17 11:01:22;;;;;;;7.97;3.88;;;15.80;99.90;;;;;;5051696;28;20048;-61
2023/03/17 11:03:48;;;;;;;7.20;3.78;;;15.90;99.90;;;;;;5050371;28;20052;-61
2023/03/17 11:06:17;;;;;;;51.95;9.95;;;16.00;99.90;;;;;;5051544;28;20033;-61
2023/03/17 11:08:52;;;;;;;8.63;3.58;;;16.20;99.90;;;;;;5051452;28;20052;-62
2023/03/17 11:11:33;;;;;;;8.65;4.22;;;16.40;99.90;;;;;;5051481;28;20384;-61
2023/03/17 11:14:03;;;;;;;5.70;3.72;;;16.70;99.90;;;;;;5051586;28;20076;-62
2023/03/17 11:16:32;;;;;;;6.05;3.85;;;16.80;99.90;;;;;;5051471;28;20519;-62
2023/03/17 11:19:01;;;;;;;6.00;3.92;;;16.70;99.90;;;;;;5050383;28;20049;-61
2023/03/17 11:21:31;;;;;;;6.43;3.53;;;16.70;99.90;;;;;;5051335;28;20552;-62
2023/03/17 11:24:07;;;;;;;5.75;3.65;;;16.60;99.90;;;;;;5059968;28;20092;-61
2023/03/17 11:26:51;;;;;;;8.60;4.07;;;16.80;99.90;;;;;;5072015;28;20486;-61
2023/03/17 11:29:32;;;;;;;5.72;3.90;;;17.30;99.90;;;;;;5073157;28;20478;-61
2023/03/17 11:32:01;;;;;;;7.32;3.83;;;17.40;99.90;;;;;;5073183;28;20048;-62
2023/03/17 11:34:55;;;;;;;4.80;3.40;;;17.80;99.90;;;;;;5073097;28;20542;-62
2023/03/17 11:38:02;;;;;;;6.03;3.65;;;17.90;99.90;;;;;;5073160;28;20475;-64
2023/03/17 11:40:27;;;;;;;9.90;4.38;;;18.20;99.90;;;;;;5073047;28;20040;-62
2023/03/17 11:43:19;;;;;;;10.35;4.18;;;18.30;99.90;;;;;;5104595;28;20046;-62
2023/03/17 11:46:08;;;;;;;8.95;4.57;;;18.50;99.90;;;;;;5113842;28;20044;-62
2023/03/17 11:48:57;;;;;;;5.78;3.97;;;18.60;99.90;;;;;;5096380;28;20039;-62
2023/03/17 11:51:42;;;;;;;8.05;3.80;;;18.80;99.90;;;;;;5093255;28;20040;-61
2023/03/17 11:54:25;;;;;;;6.15;3.97;;;19.00;99.90;;;;;;5091839;28;20478;-62
2023/03/17 11:56:56;;;;;;;6.70;3.88;;;18.80;99.90;;;;;;5093507;28;20544;-62
2023/03/17 11:59:51;;;;;;;8.07;4.68;;;18.90;99.90;;;;;;5091891;28;20082;-62
2023/03/17 12:02:30;;;;;;;6.43;4.50;;;19.00;99.90;;;;;;5092946;28;20040;-62
2023/03/17 12:05:03;;;;;;;9.30;5.40;;;18.90;99.90;;;;;;5092921;28;20109;-62
2023/03/17 12:07:34;;;;;;;8.35;4.78;;;18.80;99.90;;;;;;5092878;28;20115;-62
2023/03/17 12:10:05;;;;;;;7.60;5.00;;;18.80;99.90;;;;;;5092664;28;20036;-62
2023/03/17 12:12:37;;;;;;;7.22;4.55;;;18.90;99.90;;;;;;5092807;28;20054;-61
2023/03/17 12:15:10;;;;;;;11.30;4.90;;;19.10;99.90;;;;;;5093141;28;20147;-61
2023/03/17 12:17:50;;;;;;;13.45;5.60;;;19.00;99.90;;;;;;5092619;28;20101;-62
2023/03/17 12:20:23;;;;;;;6.00;4.75;;;19.10;99.90;;;;;;5092592;28;20044;-62
2023/03/17 12:22:54;;;;;;;8.30;5.40;;;19.20;99.90;;;;;;5092414;28;20043;-61
2023/03/17 12:25:48;;;;;;;8.40;5.03;;;19.30;99.90;;;;;;5092523;28;20040;-62
2023/03/17 12:28:18;;;;;;;9.88;5.78;;;19.40;99.90;;;;;;5092302;28;20036;-62
2023/03/17 12:31:08;;;;;;;8.85;6.05;;;19.20;99.90;;;;;;5092394;28;20032;-62
2023/03/17 12:33:46;;;;;;;9.10;5.53;;;19.10;99.90;;;;;;5092095;28;20059;-62
2023/03/17 12:36:15;;;;;;;8.45;5.28;;;19.10;99.90;;;;;;5092539;28;20067;-62
2023/03/17 12:39:09;;;;;;;7.43;4.80;;;19.30;99.90;;;;;;5092401;28;20036;-62
2023/03/17 12:42:05;;;;;;;7.00;5.50;;;19.20;99.90;;;;;;5091702;28;20056;-61
2023/03/17 12:44:40;;;;;;;11.23;5.90;;;19.50;99.90;;;;;;5094520;28;20040;-62
2023/03/17 12:47:33;;;;;;;6.20;5.03;;;19.40;99.90;;;;;;5094419;28;20107;-61
2023/03/17 12:50:27;;;;;;;9.57;5.45;;;19.10;99.90;;;;;;5109902;28;20085;-62
2023/03/17 12:53:16;;;;;;;10.27;5.57;;;19.30;99.90;;;;;;5112792;28;20130;-61
2023/03/17 12:55:46;;;;;;;7.50;5.18;;;19.10;99.90;;;;;;5112405;28;20036;-62
2023/03/17 12:58:21;;;;;;;7.15;5.35;;;18.90;99.90;;;;;;5112169;28;20122;-61
2023/03/17 13:00:56;;;;;;;9.43;5.28;;;19.00;99.90;;;;;;5108614;28;20136;-62
2023/03/17 13:03:25;;;;;;;11.35;5.10;;;18.90;99.90;;;;;;5112543;28;20052;-63
2023/03/17 13:06:00;;;;;;;7.38;5.10;;;18.70;99.90;;;;;;5110578;28;20046;-61